sensor_id;sensor_type;location;lat;lon;timestamp;temperature;humidity
66586;SHT30;53444;45.822;16.092;2022-10-16T00:00:21;11.62;92.17
66586;SHT30;53444;45.822;16.092;2022-10-16T00:02:47;11.76;91.61
66586;SHT30;53444;45.822;16.092;2022-10-16T00:05:14;11.63;91.31
66586;SHT30;53444;45.822;16.092;2022-10-16T00:07:41;11.46;91.68
66586;SHT30;53444;45.822;16.092;2022-10-16T00:10:08;11.46;91.49
66586;SHT30;53444;45.822;16.092;2022-10-16T00:12:36;11.36;91.62
66586;SHT30;53444;45.822;16.092;2022-10-16T00:15:03;11.32;92.17
66586;SHT30;53444;45.822;16.092;2022-10-16T00:17:30;11.28;92.13
66586;SHT30;53444;45.822;16.092;2022-10-16T00:19:57;11.24;92.10
66586;SHT30;53444;45.822;16.092;2022-10-16T00:22:24;11.18;92.43
66586;SHT30;53444;45.822;16.092;2022-10-16T00:24:51;11.18;92.15
66586;SHT30;53444;45.822;16.092;2022-10-16T00:27:17;11.11;92.66
66586;SHT30;53444;45.822;16.092;2022-10-16T00:29:49;11.17;92.40
66586;SHT30;53444;45.822;16.092;2022-10-16T00:32:16;11.15;92.62
66586;SHT30;53444;45.822;16.092;2022-10-16T00:34:43;11.14;92.36
66586;SHT30;53444;45.822;16.092;2022-10-16T00:37:09;11.18;92.26
66586;SHT30;53444;45.822;16.092;2022-10-16T00:39:36;11.21;92.09
66586;SHT30;53444;45.822;16.092;2022-10-16T00:42:03;11.18;92.06
66586;SHT30;53444;45.822;16.092;2022-10-16T00:44:46;11.04;92.21
66586;SHT30;53444;45.822;16.092;2022-10-16T00:47:17;11.00;92.50
66586;SHT30;53444;45.822;16.092;2022-10-16T00:49:46;10.94;92.64
66586;SHT30;53444;45.822;16.092;2022-10-16T00:52:14;10.98;92.46
66586;SHT30;53444;45.822;16.092;2022-10-16T00:54:41;10.91;92.30
66586;SHT30;53444;45.822;16.092;2022-10-16T00:57:08;10.77;93.14
66586;SHT30;53444;45.822;16.092;2022-10-16T00:59:36;10.85;92.66
66586;SHT30;53444;45.822;16.092;2022-10-16T01:02:06;10.90;92.34
66586;SHT30;53444;45.822;16.092;2022-10-16T01:04:36;10.91;92.21
66586;SHT30;53444;45.822;16.092;2022-10-16T01:07:09;10.88;92.32
66586;SHT30;53444;45.822;16.092;2022-10-16T01:09:47;10.84;91.97
66586;SHT30;53444;45.822;16.092;2022-10-16T01:12:22;10.73;92.94
66586;SHT30;53444;45.822;16.092;2022-10-16T01:14:55;10.63;92.85
66586;SHT30;53444;45.822;16.092;2022-10-16T01:17:29;10.59;93.95
66586;SHT30;53444;45.822;16.092;2022-10-16T01:20:04;10.60;93.24
66586;SHT30;53444;45.822;16.092;2022-10-16T01:22:39;10.60;93.45
66586;SHT30;53444;45.822;16.092;2022-10-16T01:25:14;10.66;93.43
66586;SHT30;53444;45.822;16.092;2022-10-16T01:27:45;10.59;93.98
66586;SHT30;53444;45.822;16.092;2022-10-16T01:30:17;10.70;93.50
66586;SHT30;53444;45.822;16.092;2022-10-16T01:32:49;10.80;93.20
66586;SHT30;53444;45.822;16.092;2022-10-16T01:35:19;10.87;93.24
66586;SHT30;53444;45.822;16.092;2022-10-16T01:37:51;10.91;93.37
66586;SHT30;53444;45.822;16.092;2022-10-16T01:40:24;10.87;93.84
66586;SHT30;53444;45.822;16.092;2022-10-16T01:42:56;10.94;93.91
66586;SHT30;53444;45.822;16.092;2022-10-16T01:45:25;10.90;94.16
66586;SHT30;53444;45.822;16.092;2022-10-16T01:47:53;10.93;94.07
66586;SHT30;53444;45.822;16.092;2022-10-16T01:50:21;10.94;93.92
66586;SHT30;53444;45.822;16.092;2022-10-16T01:52:51;10.93;93.91
66586;SHT30;53444;45.822;16.092;2022-10-16T01:55:22;10.94;93.92
66586;SHT30;53444;45.822;16.092;2022-10-16T01:57:53;10.94;94.29
66586;SHT30;53444;45.822;16.092;2022-10-16T02:00:21;10.90;94.43
66586;SHT30;53444;45.822;16.092;2022-10-16T02:02:50;10.91;94.74
66586;SHT30;53444;45.822;16.092;2022-10-16T02:05:21;10.87;94.86
66586;SHT30;53444;45.822;16.092;2022-10-16T02:07:49;10.85;95.23
66586;SHT30;53444;45.822;16.092;2022-10-16T02:10:16;10.85;95.21
66586;SHT30;53444;45.822;16.092;2022-10-16T02:12:46;10.85;95.41
66586;SHT30;53444;45.822;16.092;2022-10-16T02:15:17;10.84;95.51
66586;SHT30;53444;45.822;16.092;2022-10-16T02:17:44;10.83;95.86
66586;SHT30;53444;45.822;16.092;2022-10-16T02:20:11;10.83;95.63
66586;SHT30;53444;45.822;16.092;2022-10-16T02:22:40;10.78;95.41
66586;SHT30;53444;45.822;16.092;2022-10-16T02:25:10;10.76;95.46
66586;SHT30;53444;45.822;16.092;2022-10-16T02:27:42;10.80;95.40
66586;SHT30;53444;45.822;16.092;2022-10-16T02:30:14;10.76;95.27
66586;SHT30;53444;45.822;16.092;2022-10-16T02:32:46;10.77;94.97
66586;SHT30;53444;45.822;16.092;2022-10-16T02:35:15;10.77;95.15
66586;SHT30;53444;45.822;16.092;2022-10-16T02:37:44;10.81;94.76
66586;SHT30;53444;45.822;16.092;2022-10-16T02:40:12;10.76;94.85
66586;SHT30;53444;45.822;16.092;2022-10-16T02:42:39;10.77;95.00
66586;SHT30;53444;45.822;16.092;2022-10-16T02:45:08;10.78;94.93
66586;SHT30;53444;45.822;16.092;2022-10-16T02:47:36;10.76;95.64
66586;SHT30;53444;45.822;16.092;2022-10-16T02:50:04;10.73;96.00
66586;SHT30;53444;45.822;16.092;2022-10-16T02:52:31;10.71;95.97
66586;SHT30;53444;45.822;16.092;2022-10-16T02:54:58;10.66;96.31
66586;SHT30;53444;45.822;16.092;2022-10-16T02:57:24;10.64;96.46
66586;SHT30;53444;45.822;16.092;2022-10-16T02:59:51;10.64;96.14
66586;SHT30;53444;45.822;16.092;2022-10-16T03:02:18;10.59;95.88
66586;SHT30;53444;45.822;16.092;2022-10-16T03:04:44;10.32;96.27
66586;SHT30;53444;45.822;16.092;2022-10-16T03:07:12;10.32;96.99
66586;SHT30;53444;45.822;16.092;2022-10-16T03:09:39;10.32;97.28
66586;SHT30;53444;45.822;16.092;2022-10-16T03:12:06;10.37;97.46
66586;SHT30;53444;45.822;16.092;2022-10-16T03:14:33;10.37;97.35
66586;SHT30;53444;45.822;16.092;2022-10-16T03:16:59;10.37;97.26
66586;SHT30;53444;45.822;16.092;2022-10-16T03:19:26;10.39;97.36
66586;SHT30;53444;45.822;16.092;2022-10-16T03:21:53;10.39;96.93
66586;SHT30;53444;45.822;16.092;2022-10-16T03:24:21;10.43;97.40
66586;SHT30;53444;45.822;16.092;2022-10-16T03:26:47;10.40;96.93
66586;SHT30;53444;45.822;16.092;2022-10-16T03:29:14;10.35;97.59
66586;SHT30;53444;45.822;16.092;2022-10-16T03:31:41;10.42;97.61
66586;SHT30;53444;45.822;16.092;2022-10-16T03:34:07;10.43;97.39
66586;SHT30;53444;45.822;16.092;2022-10-16T03:36:34;10.53;97.57
66586;SHT30;53444;45.822;16.092;2022-10-16T03:39:01;10.53;97.50
66586;SHT30;53444;45.822;16.092;2022-10-16T03:41:29;10.63;97.77
66586;SHT30;53444;45.822;16.092;2022-10-16T03:43:55;10.63;97.62
66586;SHT30;53444;45.822;16.092;2022-10-16T03:46:22;10.67;97.49
66586;SHT30;53444;45.822;16.092;2022-10-16T03:48:49;10.70;97.45
66586;SHT30;53444;45.822;16.092;2022-10-16T03:51:15;10.77;97.45
66586;SHT30;53444;45.822;16.092;2022-10-16T03:53:42;10.76;97.32
66586;SHT30;53444;45.822;16.092;2022-10-16T03:56:09;10.77;97.61
66586;SHT30;53444;45.822;16.092;2022-10-16T03:58:37;10.77;97.67
66586;SHT30;53444;45.822;16.092;2022-10-16T04:01:03;10.76;97.46
66586;SHT30;53444;45.822;16.092;2022-10-16T04:03:30;10.78;97.47
66586;SHT30;53444;45.822;16.092;2022-10-16T04:05:56;10.74;97.03
66586;SHT30;53444;45.822;16.092;2022-10-16T04:08:23;10.76;97.39
66586;SHT30;53444;45.822;16.092;2022-10-16T04:10:50;10.68;97.27
66586;SHT30;53444;45.822;16.092;2022-10-16T04:13:16;10.71;97.56
66586;SHT30;53444;45.822;16.092;2022-10-16T04:15:45;10.68;97.19
66586;SHT30;53444;45.822;16.092;2022-10-16T04:18:12;10.71;97.13
66586;SHT30;53444;45.822;16.092;2022-10-16T04:20:39;10.64;97.10
66586;SHT30;53444;45.822;16.092;2022-10-16T04:23:06;10.60;97.34
66586;SHT30;53444;45.822;16.092;2022-10-16T04:25:32;10.67;97.08
66586;SHT30;53444;45.822;16.092;2022-10-16T04:27:59;10.61;96.86
66586;SHT30;53444;45.822;16.092;2022-10-16T04:30:26;10.59;96.71
66586;SHT30;53444;45.822;16.092;2022-10-16T04:32:54;10.59;96.51
66586;SHT30;53444;45.822;16.092;2022-10-16T04:35:21;10.55;96.67
66586;SHT30;53444;45.822;16.092;2022-10-16T04:37:48;10.55;96.63
66586;SHT30;53444;45.822;16.092;2022-10-16T04:40:16;10.56;96.69
66586;SHT30;53444;45.822;16.092;2022-10-16T04:42:42;10.47;96.32
66586;SHT30;53444;45.822;16.092;2022-10-16T04:45:09;10.49;96.09
66586;SHT30;53444;45.822;16.092;2022-10-16T04:47:36;10.45;96.32
66586;SHT30;53444;45.822;16.092;2022-10-16T04:50:05;10.46;96.46
66586;SHT30;53444;45.822;16.092;2022-10-16T04:52:32;10.47;96.24
66586;SHT30;53444;45.822;16.092;2022-10-16T04:54:59;10.37;96.30
66586;SHT30;53444;45.822;16.092;2022-10-16T04:57:28;10.40;95.84
66586;SHT30;53444;45.822;16.092;2022-10-16T04:59:55;10.39;95.51
66586;SHT30;53444;45.822;16.092;2022-10-16T05:02:21;10.36;95.41
66586;SHT30;53444;45.822;16.092;2022-10-16T05:04:48;10.36;95.43
66586;SHT30;53444;45.822;16.092;2022-10-16T05:07:16;10.30;95.60
66586;SHT30;53444;45.822;16.092;2022-10-16T05:09:44;10.26;95.45
66586;SHT30;53444;45.822;16.092;2022-10-16T05:12:10;10.32;95.69
66586;SHT30;53444;45.822;16.092;2022-10-16T05:14:37;10.39;95.64
66586;SHT30;53444;45.822;16.092;2022-10-16T05:17:04;10.32;95.49
66586;SHT30;53444;45.822;16.092;2022-10-16T05:19:30;10.35;95.80
66586;SHT30;53444;45.822;16.092;2022-10-16T05:21:57;10.37;95.55
66586;SHT30;53444;45.822;16.092;2022-10-16T05:24:25;10.37;95.46
66586;SHT30;53444;45.822;16.092;2022-10-16T05:26:52;10.36;95.21
66586;SHT30;53444;45.822;16.092;2022-10-16T05:29:19;10.30;94.81
66586;SHT30;53444;45.822;16.092;2022-10-16T05:31:46;10.26;95.25
66586;SHT30;53444;45.822;16.092;2022-10-16T05:34:13;10.30;95.17
66586;SHT30;53444;45.822;16.092;2022-10-16T05:36:39;10.36;95.10
66586;SHT30;53444;45.822;16.092;2022-10-16T05:39:06;10.32;95.15
66586;SHT30;53444;45.822;16.092;2022-10-16T05:41:34;10.36;95.08
66586;SHT30;53444;45.822;16.092;2022-10-16T05:44:04;10.29;95.32
66586;SHT30;53444;45.822;16.092;2022-10-16T05:46:31;10.33;95.49
66586;SHT30;53444;45.822;16.092;2022-10-16T05:48:58;10.29;95.69
66586;SHT30;53444;45.822;16.092;2022-10-16T05:51:25;10.22;95.87
66586;SHT30;53444;45.822;16.092;2022-10-16T05:53:52;10.20;95.87
66586;SHT30;53444;45.822;16.092;2022-10-16T05:56:19;10.28;96.06
66586;SHT30;53444;45.822;16.092;2022-10-16T05:58:47;10.26;96.20
66586;SHT30;53444;45.822;16.092;2022-10-16T06:01:15;10.22;96.07
66586;SHT30;53444;45.822;16.092;2022-10-16T06:03:42;10.25;96.28
66586;SHT30;53444;45.822;16.092;2022-10-16T06:06:10;10.37;95.98
66586;SHT30;53444;45.822;16.092;2022-10-16T06:08:40;10.40;95.92
66586;SHT30;53444;45.822;16.092;2022-10-16T06:11:09;10.47;95.66
66586;SHT30;53444;45.822;16.092;2022-10-16T06:13:35;10.53;95.52
66586;SHT30;53444;45.822;16.092;2022-10-16T06:16:05;10.56;95.06
66586;SHT30;53444;45.822;16.092;2022-10-16T06:18:31;10.55;94.98
66586;SHT30;53444;45.822;16.092;2022-10-16T06:20:58;10.63;94.86
66586;SHT30;53444;45.822;16.092;2022-10-16T06:23:25;10.66;94.88
66586;SHT30;53444;45.822;16.092;2022-10-16T06:25:54;10.66;95.05
66586;SHT30;53444;45.822;16.092;2022-10-16T06:28:30;10.64;94.94
66586;SHT30;53444;45.822;16.092;2022-10-16T06:30:58;10.71;94.86
66586;SHT30;53444;45.822;16.092;2022-10-16T06:33:27;10.73;94.99
66586;SHT30;53444;45.822;16.092;2022-10-16T06:35:53;10.84;94.78
66586;SHT30;53444;45.822;16.092;2022-10-16T06:38:20;10.87;94.67
66586;SHT30;53444;45.822;16.092;2022-10-16T06:40:47;10.97;94.60
66586;SHT30;53444;45.822;16.092;2022-10-16T06:43:13;10.93;94.63
66586;SHT30;53444;45.822;16.092;2022-10-16T06:45:40;10.93;94.89
66586;SHT30;53444;45.822;16.092;2022-10-16T06:48:07;10.96;94.97
66586;SHT30;53444;45.822;16.092;2022-10-16T06:50:35;11.03;94.96
66586;SHT30;53444;45.822;16.092;2022-10-16T06:53:01;11.10;95.05
66586;SHT30;53444;45.822;16.092;2022-10-16T06:55:28;11.10;95.10
66586;SHT30;53444;45.822;16.092;2022-10-16T06:57:55;11.22;94.74
66586;SHT30;53444;45.822;16.092;2022-10-16T07:00:21;11.24;94.51
66586;SHT30;53444;45.822;16.092;2022-10-16T07:02:48;11.15;94.79
66586;SHT30;53444;45.822;16.092;2022-10-16T07:05:15;11.25;94.98
66586;SHT30;53444;45.822;16.092;2022-10-16T07:07:43;11.28;94.94
66586;SHT30;53444;45.822;16.092;2022-10-16T07:10:10;11.31;95.15
66586;SHT30;53444;45.822;16.092;2022-10-16T07:12:37;11.34;94.96
66586;SHT30;53444;45.822;16.092;2022-10-16T07:15:04;11.32;94.94
66586;SHT30;53444;45.822;16.092;2022-10-16T07:17:32;11.42;94.69
66586;SHT30;53444;45.822;16.092;2022-10-16T07:19:59;11.42;94.64
66586;SHT30;53444;45.822;16.092;2022-10-16T07:22:28;11.49;94.41
66586;SHT30;53444;45.822;16.092;2022-10-16T07:24:56;11.56;94.26
66586;SHT30;53444;45.822;16.092;2022-10-16T07:27:22;11.58;94.70
66586;SHT30;53444;45.822;16.092;2022-10-16T07:29:49;11.59;94.76
66586;SHT30;53444;45.822;16.092;2022-10-16T07:32:16;11.52;94.84
66586;SHT30;53444;45.822;16.092;2022-10-16T07:34:42;11.56;94.84
66586;SHT30;53444;45.822;16.092;2022-10-16T07:37:09;11.66;94.72
66586;SHT30;53444;45.822;16.092;2022-10-16T07:39:36;11.78;94.37
66586;SHT30;53444;45.822;16.092;2022-10-16T07:42:04;11.78;94.43
66586;SHT30;53444;45.822;16.092;2022-10-16T07:44:31;11.69;94.40
66586;SHT30;53444;45.822;16.092;2022-10-16T07:46:57;11.29;94.77
66586;SHT30;53444;45.822;16.092;2022-10-16T07:49:24;11.48;94.23
66586;SHT30;53444;45.822;16.092;2022-10-16T07:51:51;11.34;95.27
66586;SHT30;53444;45.822;16.092;2022-10-16T07:54:17;11.28;95.97
66586;SHT30;53444;45.822;16.092;2022-10-16T07:56:44;11.39;95.69
66586;SHT30;53444;45.822;16.092;2022-10-16T07:59:12;11.42;95.51
66586;SHT30;53444;45.822;16.092;2022-10-16T08:01:39;11.45;95.48
66586;SHT30;53444;45.822;16.092;2022-10-16T08:04:07;11.52;94.82
66586;SHT30;53444;45.822;16.092;2022-10-16T08:06:35;11.51;94.60
66586;SHT30;53444;45.822;16.092;2022-10-16T08:09:03;11.66;94.79
66586;SHT30;53444;45.822;16.092;2022-10-16T08:11:29;11.78;94.61
66586;SHT30;53444;45.822;16.092;2022-10-16T08:13:56;11.94;94.69
66586;SHT30;53444;45.822;16.092;2022-10-16T08:16:24;12.03;94.73
66586;SHT30;53444;45.822;16.092;2022-10-16T08:18:51;12.16;94.06
66586;SHT30;53444;45.822;16.092;2022-10-16T08:21:19;12.31;93.84
66586;SHT30;53444;45.822;16.092;2022-10-16T08:23:46;12.29;93.21
66586;SHT30;53444;45.822;16.092;2022-10-16T08:26:13;12.20;93.00
66586;SHT30;53444;45.822;16.092;2022-10-16T08:28:39;12.09;93.61
66586;SHT30;53444;45.822;16.092;2022-10-16T08:31:08;12.06;93.69
66586;SHT30;53444;45.822;16.092;2022-10-16T08:33:36;12.27;93.51
66586;SHT30;53444;45.822;16.092;2022-10-16T08:36:05;12.47;93.20
66586;SHT30;53444;45.822;16.092;2022-10-16T08:38:32;12.54;92.73
66586;SHT30;53444;45.822;16.092;2022-10-16T08:41:10;12.65;92.62
66586;SHT30;53444;45.822;16.092;2022-10-16T08:43:59;12.71;92.11
66586;SHT30;53444;45.822;16.092;2022-10-16T08:46:39;12.31;94.03
66586;SHT30;53444;45.822;16.092;2022-10-16T08:49:11;12.40;93.72
66586;SHT30;53444;45.822;16.092;2022-10-16T08:51:39;12.27;93.92
66586;SHT30;53444;45.822;16.092;2022-10-16T08:54:15;12.31;93.89
66586;SHT30;53444;45.822;16.092;2022-10-16T08:56:47;12.50;94.07
66586;SHT30;53444;45.822;16.092;2022-10-16T08:59:14;12.71;93.30
66586;SHT30;53444;45.822;16.092;2022-10-16T09:01:44;12.85;92.47
66586;SHT30;53444;45.822;16.092;2022-10-16T09:07:16;13.15;91.72
66586;SHT30;53444;45.822;16.092;2022-10-16T09:10:00;13.30;91.26
66586;SHT30;53444;45.822;16.092;2022-10-16T09:12:37;13.49;90.82
66586;SHT30;53444;45.822;16.092;2022-10-16T09:15:23;13.60;90.15
66586;SHT30;53444;45.822;16.092;2022-10-16T09:17:58;13.54;89.76
66586;SHT30;53444;45.822;16.092;2022-10-16T09:20:38;13.52;90.37
66586;SHT30;53444;45.822;16.092;2022-10-16T09:23:15;13.66;90.12
66586;SHT30;53444;45.822;16.092;2022-10-16T09:25:45;13.77;89.70
66586;SHT30;53444;45.822;16.092;2022-10-16T09:28:13;13.81;89.38
66586;SHT30;53444;45.822;16.092;2022-10-16T09:30:39;13.98;88.70
66586;SHT30;53444;45.822;16.092;2022-10-16T09:33:07;13.95;89.37
66586;SHT30;53444;45.822;16.092;2022-10-16T09:35:39;14.14;88.54
66586;SHT30;53444;45.822;16.092;2022-10-16T09:38:07;14.21;88.62
66586;SHT30;53444;45.822;16.092;2022-10-16T09:40:36;14.34;87.81
66586;SHT30;53444;45.822;16.092;2022-10-16T09:43:15;14.25;87.25
66586;SHT30;53444;45.822;16.092;2022-10-16T09:45:56;14.59;86.69
66586;SHT30;53444;45.822;16.092;2022-10-16T09:48:25;14.83;85.79
66586;SHT30;53444;45.822;16.092;2022-10-16T09:50:58;14.92;85.12
66586;SHT30;53444;45.822;16.092;2022-10-16T09:53:37;14.90;84.84
66586;SHT30;53444;45.822;16.092;2022-10-16T09:56:05;15.13;84.39
66586;SHT30;53444;45.822;16.092;2022-10-16T09:58:32;14.99;84.58
66586;SHT30;53444;45.822;16.092;2022-10-16T10:00:59;15.23;83.70
66586;SHT30;53444;45.822;16.092;2022-10-16T10:03:34;15.43;83.16
66586;SHT30;53444;45.822;16.092;2022-10-16T10:06:14;15.65;82.72
66586;SHT30;53444;45.822;16.092;2022-10-16T10:08:56;15.95;81.44
66586;SHT30;53444;45.822;16.092;2022-10-16T10:14:24;16.45;80.22
66586;SHT30;53444;45.822;16.092;2022-10-16T10:16:52;16.76;79.60
66586;SHT30;53444;45.822;16.092;2022-10-16T10:19:21;16.73;79.20
66586;SHT30;53444;45.822;16.092;2022-10-16T10:21:50;17.04;79.39
66586;SHT30;53444;45.822;16.092;2022-10-16T10:24:19;17.32;77.52
66586;SHT30;53444;45.822;16.092;2022-10-16T10:26:58;17.49;77.20
66586;SHT30;53444;45.822;16.092;2022-10-16T10:29:42;17.79;76.80
66586;SHT30;53444;45.822;16.092;2022-10-16T10:32:18;17.92;74.81
66586;SHT30;53444;45.822;16.092;2022-10-16T10:35:00;17.18;77.32
66586;SHT30;53444;45.822;16.092;2022-10-16T10:37:39;17.00;77.73
66586;SHT30;53444;45.822;16.092;2022-10-16T10:40:18;17.31;76.72
66586;SHT30;53444;45.822;16.092;2022-10-16T10:42:50;17.63;75.96
66586;SHT30;53444;45.822;16.092;2022-10-16T10:45:26;17.35;77.03
66586;SHT30;53444;45.822;16.092;2022-10-16T10:48:10;18.07;75.56
66586;SHT30;53444;45.822;16.092;2022-10-16T10:50:41;17.76;75.79
66586;SHT30;53444;45.822;16.092;2022-10-16T10:56:10;18.26;73.95
66586;SHT30;53444;45.822;16.092;2022-10-16T10:58:57;18.74;73.63
66586;SHT30;53444;45.822;16.092;2022-10-16T11:01:33;18.84;72.92
66586;SHT30;53444;45.822;16.092;2022-10-16T11:04:17;19.12;71.68
66586;SHT30;53444;45.822;16.092;2022-10-16T11:06:50;19.29;71.11
66586;SHT30;53444;45.822;16.092;2022-10-16T11:09:22;19.47;71.24
66586;SHT30;53444;45.822;16.092;2022-10-16T11:11:52;19.80;70.55
66586;SHT30;53444;45.822;16.092;2022-10-16T11:14:24;20.17;69.53
66586;SHT30;53444;45.822;16.092;2022-10-16T11:16:56;20.52;68.08
66586;SHT30;53444;45.822;16.092;2022-10-16T11:19:31;20.80;66.56
66586;SHT30;53444;45.822;16.092;2022-10-16T11:22:09;20.58;66.41
66586;SHT30;53444;45.822;16.092;2022-10-16T11:24:45;20.86;66.90
66586;SHT30;53444;45.822;16.092;2022-10-16T11:27:17;20.76;67.01
66586;SHT30;53444;45.822;16.092;2022-10-16T11:29:49;21.16;65.63
66586;SHT30;53444;45.822;16.092;2022-10-16T11:32:22;21.19;64.22
66586;SHT30;53444;45.822;16.092;2022-10-16T11:34:52;21.03;64.55
66586;SHT30;53444;45.822;16.092;2022-10-16T11:37:23;21.36;64.32
66586;SHT30;53444;45.822;16.092;2022-10-16T11:39:57;21.47;63.27
66586;SHT30;53444;45.822;16.092;2022-10-16T11:42:30;21.44;63.63
66586;SHT30;53444;45.822;16.092;2022-10-16T11:45:03;21.55;64.55
66586;SHT30;53444;45.822;16.092;2022-10-16T11:47:35;22.08;62.56
66586;SHT30;53444;45.822;16.092;2022-10-16T11:50:10;22.48;61.25
66586;SHT30;53444;45.822;16.092;2022-10-16T11:52:43;22.63;60.86
66586;SHT30;53444;45.822;16.092;2022-10-16T11:55:16;21.81;61.16
66586;SHT30;53444;45.822;16.092;2022-10-16T11:57:46;21.78;62.56
66586;SHT30;53444;45.822;16.092;2022-10-16T12:00:22;22.28;62.51
66586;SHT30;53444;45.822;16.092;2022-10-16T12:02:56;22.52;60.54
66586;SHT30;53444;45.822;16.092;2022-10-16T12:05:31;22.64;60.84
66586;SHT30;53444;45.822;16.092;2022-10-16T12:08:06;23.11;58.94
66586;SHT30;53444;45.822;16.092;2022-10-16T12:10:36;23.07;59.83
66586;SHT30;53444;45.822;16.092;2022-10-16T12:13:04;23.40;58.48
66586;SHT30;53444;45.822;16.092;2022-10-16T12:15:32;23.50;57.74
66586;SHT30;53444;45.822;16.092;2022-10-16T12:17:59;23.44;58.64
66586;SHT30;53444;45.822;16.092;2022-10-16T12:20:28;23.52;57.97
66586;SHT30;53444;45.822;16.092;2022-10-16T12:22:59;23.66;58.57
66586;SHT30;53444;45.822;16.092;2022-10-16T12:25:27;23.63;57.40
66586;SHT30;53444;45.822;16.092;2022-10-16T12:27:59;23.63;58.02
66586;SHT30;53444;45.822;16.092;2022-10-16T12:30:28;23.10;57.67
66586;SHT30;53444;45.822;16.092;2022-10-16T12:32:56;22.71;58.62
66586;SHT30;53444;45.822;16.092;2022-10-16T12:35:27;22.38;59.95
66586;SHT30;53444;45.822;16.092;2022-10-16T12:38:07;23.34;58.22
66586;SHT30;53444;45.822;16.092;2022-10-16T12:40:36;23.30;58.20
66586;SHT30;53444;45.822;16.092;2022-10-16T12:46:03;24.14;55.03
66586;SHT30;53444;45.822;16.092;2022-10-16T12:48:30;23.93;55.96
66586;SHT30;53444;45.822;16.092;2022-10-16T12:50:57;23.93;56.09
66586;SHT30;53444;45.822;16.092;2022-10-16T12:53:35;24.34;54.46
66586;SHT30;53444;45.822;16.092;2022-10-16T12:56:09;24.32;55.81
66586;SHT30;53444;45.822;16.092;2022-10-16T12:58:56;24.92;53.79
66586;SHT30;53444;45.822;16.092;2022-10-16T13:01:37;23.85;55.17
66586;SHT30;53444;45.822;16.092;2022-10-16T13:07:15;24.57;54.13
66586;SHT30;53444;45.822;16.092;2022-10-16T13:09:53;24.94;53.37
66586;SHT30;53444;45.822;16.092;2022-10-16T13:12:31;24.70;52.98
66586;SHT30;53444;45.822;16.092;2022-10-16T13:15:16;25.12;52.97
66586;SHT30;53444;45.822;16.092;2022-10-16T13:17:51;24.54;52.64
66586;SHT30;53444;45.822;16.092;2022-10-16T13:20:28;23.83;55.34
66586;SHT30;53444;45.822;16.092;2022-10-16T13:23:04;24.43;54.20
66586;SHT30;53444;45.822;16.092;2022-10-16T13:25:41;25.52;51.59
66586;SHT30;53444;45.822;16.092;2022-10-16T13:28:12;25.80;49.27
66586;SHT30;53444;45.822;16.092;2022-10-16T13:30:43;25.58;49.83
66586;SHT30;53444;45.822;16.092;2022-10-16T13:33:15;25.01;51.81
66586;SHT30;53444;45.822;16.092;2022-10-16T13:35:48;25.49;49.69
66586;SHT30;53444;45.822;16.092;2022-10-16T13:38:17;25.22;49.88
66586;SHT30;53444;45.822;16.092;2022-10-16T13:40:52;25.94;48.32
66586;SHT30;53444;45.822;16.092;2022-10-16T13:43:22;26.34;47.65
66586;SHT30;53444;45.822;16.092;2022-10-16T13:45:56;27.00;45.74
66586;SHT30;53444;45.822;16.092;2022-10-16T13:48:23;27.02;46.32
66586;SHT30;53444;45.822;16.092;2022-10-16T13:51:04;27.29;45.89
66586;SHT30;53444;45.822;16.092;2022-10-16T13:53:33;27.63;45.01
66586;SHT30;53444;45.822;16.092;2022-10-16T13:56:03;27.42;45.80
66586;SHT30;53444;45.822;16.092;2022-10-16T13:58:30;27.80;45.17
66586;SHT30;53444;45.822;16.092;2022-10-16T14:01:00;27.76;45.57
66586;SHT30;53444;45.822;16.092;2022-10-16T14:03:28;28.29;44.16
66586;SHT30;53444;45.822;16.092;2022-10-16T14:05:56;27.45;45.82
66586;SHT30;53444;45.822;16.092;2022-10-16T14:08:25;26.96;46.99
66586;SHT30;53444;45.822;16.092;2022-10-16T14:10:54;25.93;48.95
66586;SHT30;53444;45.822;16.092;2022-10-16T14:13:29;27.03;46.97
66586;SHT30;53444;45.822;16.092;2022-10-16T14:15:56;27.30;46.08
66586;SHT30;53444;45.822;16.092;2022-10-16T14:18:26;27.84;46.14
66586;SHT30;53444;45.822;16.092;2022-10-16T14:20:53;27.78;46.52
66586;SHT30;53444;45.822;16.092;2022-10-16T14:23:23;27.58;46.28
66586;SHT30;53444;45.822;16.092;2022-10-16T14:25:51;27.56;46.30
66586;SHT30;53444;45.822;16.092;2022-10-16T14:28:20;27.54;45.73
66586;SHT30;53444;45.822;16.092;2022-10-16T14:30:51;27.26;46.99
66586;SHT30;53444;45.822;16.092;2022-10-16T14:33:21;27.76;46.03
66586;SHT30;53444;45.822;16.092;2022-10-16T14:36:00;28.24;45.00
66586;SHT30;53444;45.822;16.092;2022-10-16T14:38:27;28.15;45.05
66586;SHT30;53444;45.822;16.092;2022-10-16T14:40:57;28.01;45.07
66586;SHT30;53444;45.822;16.092;2022-10-16T14:43:30;28.34;45.11
66586;SHT30;53444;45.822;16.092;2022-10-16T14:45:57;27.53;46.73
66586;SHT30;53444;45.822;16.092;2022-10-16T14:48:24;27.76;46.59
66586;SHT30;53444;45.822;16.092;2022-10-16T14:50:51;27.27;46.88
66586;SHT30;53444;45.822;16.092;2022-10-16T14:53:19;27.40;47.17
66586;SHT30;53444;45.822;16.092;2022-10-16T14:55:46;27.33;47.76
66586;SHT30;53444;45.822;16.092;2022-10-16T14:58:15;26.91;48.47
66586;SHT30;53444;45.822;16.092;2022-10-16T15:00:42;27.03;48.10
66586;SHT30;53444;45.822;16.092;2022-10-16T15:03:09;26.59;48.87
66586;SHT30;53444;45.822;16.092;2022-10-16T15:05:36;26.81;48.97
66586;SHT30;53444;45.822;16.092;2022-10-16T15:08:03;26.91;48.69
66586;SHT30;53444;45.822;16.092;2022-10-16T15:10:35;26.45;49.55
66586;SHT30;53444;45.822;16.092;2022-10-16T15:13:02;25.96;50.90
66586;SHT30;53444;45.822;16.092;2022-10-16T15:15:34;26.07;50.98
66586;SHT30;53444;45.822;16.092;2022-10-16T15:18:02;25.90;51.31
66586;SHT30;53444;45.822;16.092;2022-10-16T15:20:31;25.86;51.27
66586;SHT30;53444;45.822;16.092;2022-10-16T15:22:59;25.52;52.14
66586;SHT30;53444;45.822;16.092;2022-10-16T15:25:33;25.10;52.86
66586;SHT30;53444;45.822;16.092;2022-10-16T15:28:01;25.15;52.76
66586;SHT30;53444;45.822;16.092;2022-10-16T15:30:28;24.74;53.77
66586;SHT30;53444;45.822;16.092;2022-10-16T15:32:55;24.59;53.95
66586;SHT30;53444;45.822;16.092;2022-10-16T15:35:22;24.19;55.28
66586;SHT30;53444;45.822;16.092;2022-10-16T15:37:49;24.00;55.83
66586;SHT30;53444;45.822;16.092;2022-10-16T15:40:17;23.42;57.41
66586;SHT30;53444;45.822;16.092;2022-10-16T15:42:45;23.12;58.19
66586;SHT30;53444;45.822;16.092;2022-10-16T15:45:12;22.99;58.62